Time;durP1;ratioP1;P1;durP2;ratioP2;P2;SDS_P1;SDS_P2;PMS_P1;PMS_P2;Temp;Humidity;BMP_temperature;BMP_pressure;BME280_temperature;BME280_humidity;BME280_pressure;Samples;Min_cycle;Max_cycle;Signal;HPM_P1;HPM_P2
2023/02/06 11:10:12;;;;;;;14.98;8.40;;;;;;;;;;5058297;28;20052;-82
2023/02/06 11:13:00;;;;;;;28.42;15.63;;;;;;;;;;5077287;23;20083;-81
2023/02/06 11:15:33;;;;;;;32.38;17.98;;;;;;;;;;5092028;28;20080;-79
2023/02/06 11:18:02;;;;;;;17.23;11.65;;;;;;;;;;5091739;28;20098;-79
2023/02/06 11:20:32;;;;;;;18.60;10.15;;;;;;;;;;5075787;28;20554;-80
2023/02/06 11:23:13;;;;;;;13.93;7.90;;;;;;;;;;5078103;28;20101;-80
2023/02/06 11:25:41;;;;;;;9.65;7.18;;;;;;;;;;5078725;28;20044;-80
2023/02/06 11:28:19;;;;;;;16.10;9.35;;;;;;;;;;5095748;28;20051;-80
2023/02/06 11:30:55;;;;;;;11.88;6.45;;;;;;;;;;5077278;28;20048;-79
2023/02/06 11:33:28;;;;;;;14.18;8.90;;;;;;;;;;5078156;28;20094;-81
2023/02/06 11:35:57;;;;;;;;;;;;;;;;;;5078903;28;20055;-81
2023/02/06 11:38:28;;;;;;;12.00;8.13;;;;;;;;;;5096174;28;19927;-81
2023/02/06 11:40:59;;;;;;;8.20;5.72;;;;;;;;;;5096460;28;20439;-80
2023/02/06 11:43:44;;;;;;;7.10;6.05;;;;;;;;;;5095953;28;20040;-80
2023/02/06 11:46:16;;;;;;;10.20;5.95;;;;;;;;;;5097006;28;20048;-80
2023/02/06 11:48:43;;;;;;;23.88;14.38;;;;;;;;;;5078563;28;20048;-80
2023/02/06 11:51:12;;;;;;;8.15;5.68;;;;;;;;;;5095600;28;20135;-80
2023/02/06 11:53:53;;;;;;;8.48;6.18;;;;;;;;;;5077711;28;20561;-80
2023/02/06 11:56:20;;;;;;;9.52;6.10;;;;;;;;;;5077116;28;20139;-79
2023/02/06 11:59:00;;;;;;;32.03;16.35;;;;;;;;;;5077559;28;20098;-81
2023/02/06 12:01:28;;;;;;;53.80;25.55;;;;;;;;;;5077396;28;20044;-80
2023/02/06 12:03:57;;;;;;;118.03;53.45;;;;;;;;;;5077527;28;20079;-82
2023/02/06 12:06:24;;;;;;;412.40;192.73;;;;;;;;;;5076958;28;20130;-80
2023/02/06 12:08:53;;;;;;;44.53;21.95;;;;;;;;;;5095820;28;20059;-80
2023/02/06 12:11:43;;;;;;;58.30;32.00;;;;;;;;;;5077145;28;20131;-80
2023/02/06 12:14:15;;;;;;;12.10;8.45;;;;;;;;;;5094800;28;20134;-80
2023/02/06 12:16:45;;;;;;;18.92;9.98;;;;;;;;;;5076782;28;20555;-80
2023/02/06 12:19:23;;;;;;;34.80;16.88;;;;;;;;;;5076740;28;20074;-80
2023/02/06 12:21:52;;;;;;;63.63;32.17;;;;;;;;;;5070884;28;20060;-79
2023/02/06 12:24:35;;;;;;;96.20;43.58;;;;;;;;;;5060424;28;20052;-80
2023/02/06 12:27:16;;;;;;;14.48;9.93;;;;;;;;;;5074785;28;20094;-81
2023/02/06 12:29:45;;;;;;;22.77;10.57;;;;;;;;;;5056700;28;20461;-81
2023/02/06 12:32:19;;;;;;;146.63;53.42;;;;;;;;;;5056712;28;20307;-81
2023/02/06 12:34:52;;;;;;;98.07;34.85;;;;;;;;;;5065517;28;20313;-80
2023/02/06 12:37:22;;;;;;;36.90;16.02;;;;;;;;;;5074994;28;20455;-81
2023/02/06 12:39:51;;;;;;;49.58;21.88;;;;;;;;;;5074850;28;20049;-81
2023/02/06 12:42:37;;;;;;;78.65;30.73;;;;;;;;;;5075353;28;20144;-81
2023/02/06 12:45:14;;;;;;;93.13;33.70;;;;;;;;;;5075173;28;20045;-81
2023/02/06 12:47:41;;;;;;;97.95;34.83;;;;;;;;;;5074592;28;20124;-80
2023/02/06 12:50:14;;;;;;;129.57;45.40;;;;;;;;;;5073062;28;20136;-80
2023/02/06 12:52:45;;;;;;;19.20;9.88;;;;;;;;;;5074722;28;20504;-81
2023/02/06 12:55:18;;;;;;;123.85;48.83;;;;;;;;;;5072943;28;20131;-80
2023/02/06 12:57:45;;;;;;;;;;;;;;;;;;5075035;28;20087;-81
2023/02/06 13:00:21;;;;;;;12.57;6.47;;;;;;;;;;5073566;28;20372;-80
2023/02/06 13:03:01;;;;;;;54.53;22.60;;;;;;;;;;5073767;28;20139;-81
2023/02/06 13:05:29;;;;;;;81.82;40.85;;;;;;;;;;5073614;28;20055;-80
2023/02/06 13:08:02;;;;;;;33.50;17.70;;;;;;;;;;5072803;28;20044;-80
2023/02/06 13:10:29;;;;;;;;;;;;;;;;;;5074856;28;20172;-80
2023/02/06 13:12:58;;;;;;;12.52;7.60;;;;;;;;;;5075945;28;19920;-80
2023/02/06 13:15:27;;;;;;;13.25;8.60;;;;;;;;;;5076358;28;20087;-80
2023/02/06 13:17:55;;;;;;;7.35;5.60;;;;;;;;;;5055918;28;20045;-80
2023/02/06 13:20:23;;;;;;;10.60;6.40;;;;;;;;;;5056051;28;20045;-80
2023/02/06 13:22:52;;;;;;;9.80;6.20;;;;;;;;;;5055762;28;20045;-81
2023/02/06 13:25:28;;;;;;;15.70;9.52;;;;;;;;;;5072896;28;20049;-79
2023/02/06 13:28:21;;;;;;;15.77;9.43;;;;;;;;;;5073261;28;20048;-80
2023/02/06 13:30:50;;;;;;;6.22;4.95;;;;;;;;;;5055229;28;20056;-81
2023/02/06 13:33:22;;;;;;;15.18;8.73;;;;;;;;;;5065751;28;20404;-80
2023/02/06 13:35:58;;;;;;;17.45;9.73;;;;;;;;;;5075216;28;20094;-80
2023/02/06 13:38:27;;;;;;;6.15;4.93;;;;;;;;;;5092917;28;20535;-80
2023/02/06 13:41:13;;;;;;;11.07;6.97;;;;;;;;;;5093402;28;20135;-80
2023/02/06 13:43:41;;;;;;;7.78;4.95;;;;;;;;;;5074596;28;20127;-81
2023/02/06 13:46:10;;;;;;;7.35;5.38;;;;;;;;;;5075097;28;20054;-80
2023/02/06 13:49:16;;;;;;;8.35;5.50;;;;;;;;;;5075108;28;20048;-80
2023/02/06 13:51:49;;;;;;;6.60;5.72;;;;;;;;;;4991432;28;20046;-80
2023/02/06 13:54:16;;;;;;;6.95;4.45;;;;;;;;;;4991331;28;20050;-80
2023/02/06 13:56:51;;;;;;;5.80;4.57;;;;;;;;;;5027590;28;20143;-80
2023/02/06 13:59:22;;;;;;;6.38;4.78;;;;;;;;;;5074816;28;20450;-80
2023/02/06 14:01:49;;;;;;;4.95;4.40;;;;;;;;;;5076020;28;20054;-80
2023/02/06 14:04:18;;;;;;;4.28;3.90;;;;;;;;;;5076638;28;20524;-81
2023/02/06 14:06:51;;;;;;;4.60;4.07;;;;;;;;;;5075976;28;20147;-79
2023/02/06 14:12:38;;;;;;;6.00;5.20;;;;;;;;;;5093208;28;20130;-81
2023/02/06 14:15:13;;;;;;;7.88;5.15;;;;;;;;;;5092871;28;20052;-80
2023/02/06 14:17:58;;;;;;;8.23;5.50;;;;;;;;;;5093406;28;20128;-80
2023/02/06 14:20:43;;;;;;;6.13;5.40;;;;;;;;;;5093763;28;20051;-80
2023/02/06 14:23:10;;;;;;;14.63;6.78;;;;;;;;;;5075745;28;20040;-80
2023/02/06 14:25:41;;;;;;;6.30;5.70;;;;;;;;;;5092975;28;20048;-80
2023/02/06 14:28:23;;;;;;;6.88;5.32;;;;;;;;;;5092874;28;20130;-80
2023/02/06 14:30:54;;;;;;;8.95;5.75;;;;;;;;;;5093193;28;20044;-80
2023/02/06 14:33:24;;;;;;;6.97;5.43;;;;;;;;;;5074971;28;20044;-80
2023/02/06 14:36:10;;;;;;;9.27;6.90;;;;;;;;;;5075146;28;20052;-81
2023/02/06 14:38:43;;;;;;;7.40;5.93;;;;;;;;;;5074670;28;20059;-80
2023/02/06 14:41:11;;;;;;;12.48;6.07;;;;;;;;;;5074817;28;20052;-80
2023/02/06 14:43:40;;;;;;;8.77;6.80;;;;;;;;;;5092723;28;20048;-80
2023/02/06 14:46:10;;;;;;;10.95;7.15;;;;;;;;;;5074836;28;20131;-80
2023/02/06 14:48:54;;;;;;;7.47;5.65;;;;;;;;;;5074601;28;20052;-80
2023/02/06 14:51:29;;;;;;;9.82;6.65;;;;;;;;;;5074498;28;20040;-79
2023/02/06 14:53:59;;;;;;;9.70;7.22;;;;;;;;;;5092476;28;20135;-80
2023/02/06 14:56:30;;;;;;;8.27;6.95;;;;;;;;;;5096175;28;20044;-79
2023/02/06 14:59:07;;;;;;;10.40;7.13;;;;;;;;;;5078122;28;20568;-79
2023/02/06 15:01:34;;;;;;;8.05;6.60;;;;;;;;;;5096295;28;20507;-79
2023/02/06 15:04:16;;;;;;;19.67;14.10;;;;;;;;;;5078399;28;20135;-80
2023/02/06 15:06:49;;;;;;;12.90;9.13;;;;;;;;;;5096750;28;20044;-80
2023/02/06 15:09:22;;;;;;;13.32;10.05;;;;;;;;;;5078177;28;20130;-79
2023/02/06 15:11:51;;;;;;;15.63;12.75;;;;;;;;;;5078272;28;20119;-80
2023/02/06 15:14:21;;;;;;;10.57;8.63;;;;;;;;;;5096137;28;20134;-79
2023/02/06 15:16:49;;;;;;;11.55;8.40;;;;;;;;;;5078171;28;20123;-80
2023/02/06 15:19:18;;;;;;;11.18;8.65;;;;;;;;;;5078012;28;20056;-79
2023/02/06 15:21:45;;;;;;;16.58;11.65;;;;;;;;;;5078361;28;20047;-80
2023/02/06 15:24:31;;;;;;;12.82;11.07;;;;;;;;;;5077657;28;20138;-79
2023/02/06 15:27:19;;;;;;;12.95;10.40;;;;;;;;;;5078125;28;20099;-80
2023/02/06 15:29:48;;;;;;;16.40;11.43;;;;;;;;;;5095832;28;20055;-79
2023/02/06 15:32:22;;;;;;;12.48;8.85;;;;;;;;;;5077299;28;20123;-79
2023/02/06 15:34:50;;;;;;;12.73;9.65;;;;;;;;;;5095145;28;20115;-79
2023/02/06 15:37:22;;;;;;;15.68;10.70;;;;;;;;;;5095351;28;20087;-80
2023/02/06 15:39:50;;;;;;;17.35;11.77;;;;;;;;;;5077134;28;20127;-79
2023/02/06 15:42:18;;;;;;;16.42;11.93;;;;;;;;;;5095168;28;20047;-78
2023/02/06 15:44:46;;;;;;;50.53;30.00;;;;;;;;;;5077022;28;20040;-79
2023/02/06 15:47:15;;;;;;;27.48;13.27;;;;;;;;;;5095211;28;20047;-79
2023/02/06 15:49:43;;;;;;;18.83;12.85;;;;;;;;;;5095287;28;20139;-79
2023/02/06 15:52:12;;;;;;;20.75;15.23;;;;;;;;;;5094754;28;20091;-79
2023/02/06 15:54:41;;;;;;;20.90;14.80;;;;;;;;;;5076610;28;20434;-79
2023/02/06 15:57:35;;;;;;;19.02;13.80;;;;;;;;;;5076644;28;20055;-79
2023/02/06 16:00:07;;;;;;;25.65;18.73;;;;;;;;;;5073735;28;20126;-79
2023/02/06 16:02:36;;;;;;;19.23;13.38;;;;;;;;;;5094415;28;20439;-79
2023/02/06 16:05:04;;;;;;;17.17;12.07;;;;;;;;;;5076442;28;20420;-79
2023/02/06 16:07:34;;;;;;;23.23;14.30;;;;;;;;;;5076148;28;20132;-79
2023/02/06 16:10:07;;;;;;;30.92;21.85;;;;;;;;;;5076705;28;20044;-79
2023/02/06 16:12:39;;;;;;;20.33;16.42;;;;;;;;;;5094192;28;20044;-79
2023/02/06 16:15:24;;;;;;;19.00;14.30;;;;;;;;;;5076481;28;20526;-79
2023/02/06 16:17:52;;;;;;;20.35;15.32;;;;;;;;;;5076570;28;20044;-79
2023/02/06 16:20:33;;;;;;;33.47;22.27;;;;;;;;;;5094234;28;20075;-79
2023/02/06 16:23:19;;;;;;;22.05;14.18;;;;;;;;;;5094171;28;20054;-79
2023/02/06 16:25:47;;;;;;;25.65;18.92;;;;;;;;;;5076254;28;20048;-80
2023/02/06 16:28:21;;;;;;;20.33;15.85;;;;;;;;;;5094070;28;20050;-79
2023/02/06 16:30:56;;;;;;;23.20;16.63;;;;;;;;;;5093966;28;20163;-79
2023/02/06 16:33:32;;;;;;;31.80;21.27;;;;;;;;;;5093849;28;20086;-79
2023/02/06 16:35:59;;;;;;;27.00;20.75;;;;;;;;;;5076008;28;20131;-80
2023/02/06 16:38:26;;;;;;;42.92;30.00;;;;;;;;;;5076097;28;20044;-79
2023/02/06 16:40:53;;;;;;;23.45;15.57;;;;;;;;;;5094636;28;20059;-78
2023/02/06 16:43:21;;;;;;;18.85;14.55;;;;;;;;;;5075706;28;20052;-79
2023/02/06 16:45:48;;;;;;;22.13;16.38;;;;;;;;;;5075705;28;20044;-79
2023/02/06 16:48:16;;;;;;;24.92;17.90;;;;;;;;;;5075980;28;20048;-79
2023/02/06 16:50:45;;;;;;;24.90;19.45;;;;;;;;;;5093716;28;20052;-79
2023/02/06 16:53:20;;;;;;;23.17;16.63;;;;;;;;;;5075907;28;20513;-79
2023/02/06 16:55:48;;;;;;;29.88;21.50;;;;;;;;;;5076693;28;20054;-78
2023/02/06 16:58:16;;;;;;;21.30;14.32;;;;;;;;;;5092862;28;20044;-79
2023/02/06 17:00:44;;;;;;;21.95;16.00;;;;;;;;;;5075497;28;20087;-80
2023/02/06 17:03:12;;;;;;;32.63;21.92;;;;;;;;;;5075842;28;20481;-79
2023/02/06 17:05:40;;;;;;;35.28;22.25;;;;;;;;;;5093785;28;20050;-80
2023/02/06 17:08:18;;;;;;;28.15;16.83;;;;;;;;;;5075565;28;20055;-79
2023/02/06 17:10:46;;;;;;;30.00;20.25;;;;;;;;;;5075639;28;20131;-79
2023/02/06 17:13:19;;;;;;;32.90;25.30;;;;;;;;;;5075300;28;20044;-79
2023/02/06 17:15:47;;;;;;;18.88;13.90;;;;;;;;;;5075430;28;20087;-79
2023/02/06 17:18:16;;;;;;;25.63;16.00;;;;;;;;;;5074595;28;20047;-79
2023/02/06 17:20:44;;;;;;;30.67;16.35;;;;;;;;;;5075256;28;20040;-79
2023/02/06 17:23:13;;;;;;;24.17;16.27;;;;;;;;;;5078296;28;20059;-79
2023/02/06 17:25:41;;;;;;;23.48;16.05;;;;;;;;;;5072937;28;20139;-79
2023/02/06 17:28:10;;;;;;;26.50;17.08;;;;;;;;;;5054993;28;20045;-79
2023/02/06 17:30:38;;;;;;;27.38;18.33;;;;;;;;;;5055097;28;20052;-79
2023/02/06 17:33:05;;;;;;;30.10;20.35;;;;;;;;;;5054991;28;20040;-79
2023/02/06 17:35:35;;;;;;;28.92;19.92;;;;;;;;;;5072458;28;20049;-78
2023/02/06 17:38:06;;;;;;;30.73;20.60;;;;;;;;;;5055192;28;20059;-80
2023/02/06 17:40:34;;;;;;;36.85;24.40;;;;;;;;;;5072478;28;20048;-78
2023/02/06 17:43:03;;;;;;;30.90;21.70;;;;;;;;;;5054856;28;20051;-79
2023/02/06 17:45:31;;;;;;;29.10;16.85;;;;;;;;;;5054637;28;20522;-78
2023/02/06 17:47:58;;;;;;;23.25;16.30;;;;;;;;;;5072341;28;20048;-79
2023/02/06 17:50:26;;;;;;;22.75;14.90;;;;;;;;;;5072187;28;20047;-78
2023/02/06 17:52:54;;;;;;;21.08;13.65;;;;;;;;;;5072392;28;20040;-79
2023/02/06 17:55:22;;;;;;;21.30;13.38;;;;;;;;;;5072330;28;20112;-78
2023/02/06 17:57:50;;;;;;;17.40;13.13;;;;;;;;;;5054903;28;20127;-78
2023/02/06 18:00:19;;;;;;;17.02;12.13;;;;;;;;;;5072309;28;20122;-78
2023/02/06 18:02:46;;;;;;;14.63;11.10;;;;;;;;;;5072343;28;20423;-78
2023/02/06 18:05:13;;;;;;;15.05;11.82;;;;;;;;;;5072374;28;20049;-78
2023/02/06 18:07:40;;;;;;;17.15;12.35;;;;;;;;;;5072414;28;20381;-78
2023/02/06 18:10:08;;;;;;;15.73;12.40;;;;;;;;;;5072378;28;20049;-79
2023/02/06 18:12:35;;;;;;;19.42;12.23;;;;;;;;;;5054010;28;20505;-79
2023/02/06 18:15:03;;;;;;;16.65;12.15;;;;;;;;;;5072047;28;20070;-78
2023/02/06 18:17:31;;;;;;;15.23;11.77;;;;;;;;;;5054309;28;20052;-79
2023/02/06 18:19:58;;;;;;;16.27;11.73;;;;;;;;;;5072415;28;20136;-79
2023/02/06 18:22:25;;;;;;;13.27;9.80;;;;;;;;;;5054439;28;20127;-79
2023/02/06 18:24:52;;;;;;;12.05;9.88;;;;;;;;;;5054479;28;20044;-79
2023/02/06 18:27:20;;;;;;;13.23;10.75;;;;;;;;;;5054279;28;20052;-78
2023/02/06 18:29:51;;;;;;;11.07;9.13;;;;;;;;;;5074817;28;20083;-78
2023/02/06 18:32:18;;;;;;;11.88;9.32;;;;;;;;;;5075990;28;20510;-79
2023/02/06 18:34:46;;;;;;;11.48;9.30;;;;;;;;;;5058549;28;20419;-80
2023/02/06 18:37:13;;;;;;;10.90;9.05;;;;;;;;;;5058541;28;20469;-79
2023/02/06 18:39:40;;;;;;;12.30;9.52;;;;;;;;;;5058308;28;20575;-79
2023/02/06 18:44:53;;;;;;;15.35;11.65;;;;;;;;;;5075830;28;20047;-79
2023/02/06 18:47:20;;;;;;;15.80;11.65;;;;;;;;;;5058001;28;20047;-79
2023/02/06 18:49:47;;;;;;;15.52;11.70;;;;;;;;;;5077298;28;20083;-80
2023/02/06 18:52:15;;;;;;;21.48;13.02;;;;;;;;;;5059177;28;20060;-79
2023/02/06 18:54:42;;;;;;;17.60;13.60;;;;;;;;;;5078105;28;20056;-80
2023/02/06 18:57:09;;;;;;;17.95;13.00;;;;;;;;;;5077366;28;20112;-79
2023/02/06 18:59:37;;;;;;;18.90;13.25;;;;;;;;;;5059472;28;20480;-80
2023/02/06 19:02:04;;;;;;;17.02;13.10;;;;;;;;;;5077199;28;20054;-81
2023/02/06 19:04:31;;;;;;;19.45;13.80;;;;;;;;;;5058733;28;20504;-80
2023/02/06 19:06:58;;;;;;;19.48;14.25;;;;;;;;;;5059389;28;20083;-79
2023/02/06 19:09:25;;;;;;;22.90;15.18;;;;;;;;;;5076140;28;20044;-79
2023/02/06 19:11:53;;;;;;;23.48;16.60;;;;;;;;;;5055546;28;20049;-80
2023/02/06 19:14:24;;;;;;;21.90;15.73;;;;;;;;;;5055166;28;20045;-79
2023/02/06 19:16:51;;;;;;;21.60;15.27;;;;;;;;;;5056925;28;20139;-80
2023/02/06 19:19:18;;;;;;;24.27;15.90;;;;;;;;;;5055489;28;20139;-80
2023/02/06 19:21:46;;;;;;;20.48;15.10;;;;;;;;;;5054784;28;20052;-79
2023/02/06 19:24:14;;;;;;;22.80;14.30;;;;;;;;;;5055044;28;20143;-78
2023/02/06 19:26:41;;;;;;;22.02;14.98;;;;;;;;;;5054430;28;20049;-79
2023/02/06 19:29:08;;;;;;;24.00;15.27;;;;;;;;;;5054556;28;20497;-80
2023/02/06 19:31:39;;;;;;;25.30;15.55;;;;;;;;;;5054160;28;20524;-79
2023/02/06 19:34:06;;;;;;;19.55;14.60;;;;;;;;;;5056125;28;20140;-79
2023/02/06 19:36:33;;;;;;;16.98;13.35;;;;;;;;;;5054436;28;20076;-81
2023/02/06 19:39:02;;;;;;;21.13;13.52;;;;;;;;;;5054268;28;20133;-80
2023/02/06 19:41:30;;;;;;;24.42;14.55;;;;;;;;;;5054133;28;20069;-79
2023/02/06 19:44:00;;;;;;;21.83;14.80;;;;;;;;;;5054152;28;20157;-79
2023/02/06 19:46:27;;;;;;;23.23;14.43;;;;;;;;;;5053703;28;20132;-79
2023/02/06 19:48:55;;;;;;;30.73;14.20;;;;;;;;;;5055113;28;20041;-79
2023/02/06 19:51:23;;;;;;;20.15;14.15;;;;;;;;;;5054833;28;20048;-79
2023/02/06 19:53:51;;;;;;;19.75;14.40;;;;;;;;;;5054384;28;20045;-80
2023/02/06 19:56:20;;;;;;;22.38;16.00;;;;;;;;;;5053688;28;20053;-80
2023/02/06 19:58:47;;;;;;;20.88;15.10;;;;;;;;;;5052552;28;20135;-80
2023/02/06 20:01:15;;;;;;;19.77;14.50;;;;;;;;;;5053492;28;20159;-79
2023/02/06 20:03:43;;;;;;;23.40;16.65;;;;;;;;;;5054892;28;20064;-79
2023/02/06 20:06:11;;;;;;;26.00;18.35;;;;;;;;;;5054988;28;20045;-79
2023/02/06 20:08:40;;;;;;;26.70;17.92;;;;;;;;;;5053573;28;20449;-79
2023/02/06 20:11:09;;;;;;;25.65;17.13;;;;;;;;;;5056300;28;20550;-80
2023/02/06 20:13:36;;;;;;;24.73;16.80;;;;;;;;;;5056452;28;20062;-79
2023/02/06 20:16:05;;;;;;;29.38;18.42;;;;;;;;;;5074406;28;20049;-79
2023/02/06 20:18:34;;;;;;;27.33;18.65;;;;;;;;;;5074372;28;20076;-80
2023/02/06 20:21:01;;;;;;;24.23;17.67;;;;;;;;;;5056579;28;20131;-80
2023/02/06 20:23:29;;;;;;;27.10;18.25;;;;;;;;;;5056599;28;20064;-80
2023/02/06 20:25:56;;;;;;;29.67;20.38;;;;;;;;;;5056402;28;20044;-80
2023/02/06 20:28:23;;;;;;;31.35;21.42;;;;;;;;;;5074103;28;20406;-80
2023/02/06 20:30:50;;;;;;;29.80;20.50;;;;;;;;;;5056429;28;20131;-80
2023/02/06 20:33:17;;;;;;;32.78;20.27;;;;;;;;;;5056486;28;20576;-80
2023/02/06 20:35:44;;;;;;;31.08;19.95;;;;;;;;;;5056203;28;20143;-80
2023/02/06 20:38:12;;;;;;;31.98;21.42;;;;;;;;;;5056087;28;20128;-79
2023/02/06 20:40:42;;;;;;;32.47;19.10;;;;;;;;;;5073667;28;20063;-81
2023/02/06 20:43:09;;;;;;;34.97;20.73;;;;;;;;;;5074087;28;20052;-79
2023/02/06 20:45:36;;;;;;;31.65;20.52;;;;;;;;;;5055945;28;20423;-80
2023/02/06 20:48:04;;;;;;;30.20;19.92;;;;;;;;;;5056486;28;20131;-80
2023/02/06 20:50:31;;;;;;;31.75;20.10;;;;;;;;;;5055926;28;20415;-80
2023/02/06 20:52:58;;;;;;;33.47;21.73;;;;;;;;;;5055818;28;20044;-80
2023/02/06 20:55:25;;;;;;;31.63;20.63;;;;;;;;;;5073393;28;20514;-79
2023/02/06 20:57:53;;;;;;;32.15;21.30;;;;;;;;;;5055614;28;20061;-79
2023/02/06 21:00:20;;;;;;;39.70;23.45;;;;;;;;;;5055765;28;20048;-80
2023/02/06 21:02:47;;;;;;;33.58;22.20;;;;;;;;;;5055357;28;20048;-79
2023/02/06 21:05:15;;;;;;;31.02;20.83;;;;;;;;;;5072724;28;20047;-80
2023/02/06 21:07:42;;;;;;;30.98;20.40;;;;;;;;;;5055461;28;20060;-79
2023/02/06 21:10:09;;;;;;;30.60;20.50;;;;;;;;;;5073829;28;20060;-79
2023/02/06 21:12:36;;;;;;;33.15;21.65;;;;;;;;;;5074253;28;20088;-79
2023/02/06 21:15:04;;;;;;;32.10;20.60;;;;;;;;;;5073383;28;20052;-80
2023/02/06 21:17:31;;;;;;;33.25;20.67;;;;;;;;;;5055239;28;20045;-79
2023/02/06 21:19:58;;;;;;;32.67;20.52;;;;;;;;;;5073252;28;20066;-80
2023/02/06 21:22:25;;;;;;;32.60;21.05;;;;;;;;;;5055018;28;20056;-80
2023/02/06 21:24:53;;;;;;;30.35;20.05;;;;;;;;;;5072783;28;20401;-79
2023/02/06 21:27:20;;;;;;;28.00;19.42;;;;;;;;;;5055274;28;20415;-80
2023/02/06 21:29:47;;;;;;;31.08;20.55;;;;;;;;;;5055207;28;20132;-79
2023/02/06 21:32:14;;;;;;;32.65;20.40;;;;;;;;;;5072624;28;20048;-80
2023/02/06 21:34:42;;;;;;;32.10;20.73;;;;;;;;;;5072718;28;20283;-80
2023/02/06 21:37:09;;;;;;;32.50;19.90;;;;;;;;;;5072723;28;20048;-78
2023/02/06 21:39:37;;;;;;;31.48;19.27;;;;;;;;;;5055121;28;20505;-80
2023/02/06 21:42:04;;;;;;;30.13;19.10;;;;;;;;;;5073024;28;20045;-80
2023/02/06 21:44:32;;;;;;;27.25;18.52;;;;;;;;;;5055154;28;20478;-80
2023/02/06 21:46:59;;;;;;;30.40;19.65;;;;;;;;;;5056316;28;20052;-80
2023/02/06 21:49:26;;;;;;;32.20;19.35;;;;;;;;;;5054964;28;20486;-79
2023/02/06 21:51:55;;;;;;;32.13;20.05;;;;;;;;;;5054508;28;20052;-79
2023/02/06 21:54:23;;;;;;;32.83;19.85;;;;;;;;;;5054870;28;20045;-79
2023/02/06 21:56:51;;;;;;;30.42;19.15;;;;;;;;;;5072691;28;20144;-80
2023/02/06 21:59:18;;;;;;;31.67;20.38;;;;;;;;;;5054958;28;20048;-79
2023/02/06 22:01:45;;;;;;;32.38;20.45;;;;;;;;;;5054869;28;20138;-80
2023/02/06 22:04:12;;;;;;;31.55;21.08;;;;;;;;;;5054527;28;20044;-81
2023/02/06 22:06:39;;;;;;;32.00;19.38;;;;;;;;;;5055095;28;20055;-80
2023/02/06 22:09:08;;;;;;;30.52;19.38;;;;;;;;;;5054901;28;20553;-80
2023/02/06 22:11:36;;;;;;;32.92;20.88;;;;;;;;;;5072563;28;20412;-81
2023/02/06 22:14:05;;;;;;;30.25;19.52;;;;;;;;;;5072786;28;20512;-80
2023/02/06 22:16:32;;;;;;;28.73;18.17;;;;;;;;;;5054396;28;20139;-79
2023/02/06 22:18:59;;;;;;;29.20;19.23;;;;;;;;;;5054323;28;20512;-79
2023/02/06 22:21:27;;;;;;;27.20;17.80;;;;;;;;;;5072617;28;20087;-81
2023/02/06 22:23:55;;;;;;;25.30;18.17;;;;;;;;;;5054724;28;20056;-81
2023/02/06 22:26:23;;;;;;;29.25;18.67;;;;;;;;;;5054357;28;20147;-80
2023/02/06 22:28:50;;;;;;;25.67;17.38;;;;;;;;;;5054580;28;20492;-79
2023/02/06 22:31:19;;;;;;;28.98;19.08;;;;;;;;;;5054441;28;20555;-79
2023/02/06 22:33:47;;;;;;;28.05;18.58;;;;;;;;;;5072560;28;20048;-80
2023/02/06 22:36:15;;;;;;;29.05;19.52;;;;;;;;;;5054467;28;20143;-81
2023/02/06 22:38:43;;;;;;;29.23;19.30;;;;;;;;;;5054602;28;20420;-79
2023/02/06 22:41:13;;;;;;;30.95;20.70;;;;;;;;;;5054141;28;20579;-80
2023/02/06 22:43:41;;;;;;;27.55;18.17;;;;;;;;;;5054209;28;20049;-79
2023/02/06 22:46:08;;;;;;;29.08;18.90;;;;;;;;;;5054367;28;20048;-80
2023/02/06 22:48:36;;;;;;;30.15;19.60;;;;;;;;;;5054589;28;20084;-79
2023/02/06 22:51:07;;;;;;;39.00;24.60;;;;;;;;;;5054434;28;20055;-80
2023/02/06 22:53:34;;;;;;;29.85;19.52;;;;;;;;;;5054135;28;20128;-80
2023/02/06 22:58:50;;;;;;;28.23;18.15;;;;;;;;;;5072477;28;20095;-79
2023/02/06 23:01:18;;;;;;;27.23;17.95;;;;;;;;;;5054044;28;20057;-80
2023/02/06 23:03:45;;;;;;;28.45;18.80;;;;;;;;;;5054217;28;20048;-79
2023/02/06 23:06:14;;;;;;;26.52;16.83;;;;;;;;;;5054014;28;20094;-79
2023/02/06 23:08:42;;;;;;;26.67;16.67;;;;;;;;;;5053724;28;20049;-79
2023/02/06 23:11:09;;;;;;;25.45;15.85;;;;;;;;;;5071368;28;20048;-79
2023/02/06 23:13:37;;;;;;;26.33;16.67;;;;;;;;;;5081191;22;20057;-85
2023/02/06 23:16:04;;;;;;;24.23;16.70;;;;;;;;;;5037796;28;20067;-86
2023/02/06 23:18:32;;;;;;;28.08;17.70;;;;;;;;;;5043556;28;20127;-86
2023/02/06 23:21:04;;;;;;;25.42;18.00;;;;;;;;;;5060796;28;20056;-85
2023/02/06 23:23:31;;;;;;;28.90;18.40;;;;;;;;;;5044108;28;20045;-85
2023/02/06 23:25:58;;;;;;;29.45;17.98;;;;;;;;;;5060997;28;20053;-85
2023/02/06 23:28:26;;;;;;;27.92;17.85;;;;;;;;;;5059376;28;20048;-85
2023/02/06 23:30:53;;;;;;;26.23;18.23;;;;;;;;;;5062020;28;20051;-85
2023/02/06 23:33:21;;;;;;;28.83;18.17;;;;;;;;;;5041490;28;20041;-86
2023/02/06 23:35:49;;;;;;;27.40;17.63;;;;;;;;;;5058613;28;20060;-86
2023/02/06 23:38:16;;;;;;;30.83;18.27;;;;;;;;;;5041483;28;20051;-85
2023/02/06 23:40:43;;;;;;;28.23;19.02;;;;;;;;;;5044760;28;20678;-86
2023/02/06 23:43:11;;;;;;;30.13;19.45;;;;;;;;;;5044281;28;20049;-86
2023/02/06 23:45:39;;;;;;;32.38;20.30;;;;;;;;;;5042215;28;20049;-85
2023/02/06 23:48:07;;;;;;;31.95;20.20;;;;;;;;;;5042822;28;20048;-85
2023/02/06 23:50:35;;;;;;;32.90;21.35;;;;;;;;;;5047063;28;20063;-85
2023/02/06 23:53:02;;;;;;;35.63;21.50;;;;;;;;;;5046217;28;20084;-85
2023/02/06 23:55:30;;;;;;;32.80;21.13;;;;;;;;;;5060928;28;20466;-85
2023/02/06 23:57:57;;;;;;;34.90;21.02;;;;;;;;;;5043408;28;20045;-86
